createdAt,value
2018-09-05T00:00:23.523Z,58.00
2018-09-05T00:02:51.934Z,59.00
2018-09-05T00:05:20.197Z,59.50
2018-09-05T00:07:48.489Z,62.25
2018-09-05T00:10:16.752Z,58.25
2018-09-05T00:12:45.017Z,55.00
2018-09-05T00:15:13.267Z,59.50
2018-09-05T00:17:41.570Z,60.00
2018-09-05T00:20:09.862Z,57.50
2018-09-05T00:22:38.175Z,53.50
2018-09-05T00:25:06.656Z,57.00
2018-09-05T00:27:34.939Z,58.75
2018-09-05T00:30:03.231Z,55.00
2018-09-05T00:32:31.514Z,55.00
2018-09-05T00:34:59.816Z,57.00
2018-09-05T00:37:28.084Z,56.50
2018-09-05T00:39:56.348Z,58.00
2018-09-05T00:42:24.640Z,57.50
2018-09-05T00:44:53.023Z,56.00
2018-09-05T00:47:21.291Z,57.00
2018-09-05T00:49:49.574Z,57.50
2018-09-05T00:52:17.816Z,57.50
2018-09-05T00:54:46.099Z,53.75
2018-09-05T00:57:14.389Z,59.50
2018-09-05T00:59:42.668Z,56.00
2018-09-05T01:02:10.955Z,55.00
2018-09-05T01:04:39.243Z,58.00
2018-09-05T01:07:18.811Z,54.50
2018-09-05T01:09:48.110Z,57.75
2018-09-05T01:12:16.766Z,56.75
2018-09-05T01:14:45.003Z,54.75
2018-09-05T01:17:13.327Z,58.25
2018-09-05T01:19:41.569Z,57.00
2018-09-05T01:22:10.186Z,55.00
2018-09-05T01:24:38.669Z,57.75
2018-09-05T01:27:07.633Z,51.75
2018-09-05T01:29:37.335Z,55.75
2018-09-05T01:32:05.678Z,53.50
2018-09-05T01:34:34.099Z,56.75
2018-09-05T01:37:02.419Z,58.00
2018-09-05T01:39:30.715Z,55.25
2018-09-05T01:41:59.047Z,54.25
2018-09-05T01:44:27.372Z,55.00
2018-09-05T01:46:55.598Z,57.75
2018-09-05T01:49:23.980Z,57.00
2018-09-05T01:51:56.144Z,51.75
2018-09-05T01:54:24.421Z,53.75
2018-09-05T01:56:53.598Z,56.75
2018-09-05T01:59:21.947Z,51.25
2018-09-05T02:01:50.702Z,56.25
2018-09-05T02:04:19.994Z,55.50
2018-09-05T02:06:48.283Z,56.00
2018-09-05T02:09:16.565Z,55.50
2018-09-05T02:11:44.909Z,54.00
2018-09-05T02:14:13.467Z,55.50
2018-09-05T02:16:42.526Z,54.00
2018-09-05T02:19:10.830Z,54.75
2018-09-05T02:21:39.118Z,54.00
2018-09-05T02:24:07.402Z,52.00
2018-09-05T02:26:35.706Z,51.25
2018-09-05T02:29:03.963Z,54.25
2018-09-05T02:31:32.253Z,55.25
2018-09-05T02:34:00.507Z,54.75
2018-09-05T02:36:28.807Z,55.50
2018-09-05T02:38:57.059Z,52.25
2018-09-05T02:41:25.371Z,55.00
2018-09-05T02:43:58.855Z,51.50
2018-09-05T02:46:27.139Z,55.00
2018-09-05T02:48:55.439Z,53.00
2018-09-05T02:51:23.729Z,53.50
2018-09-05T02:53:52.031Z,56.00
2018-09-05T02:56:23.034Z,56.25
2018-09-05T02:58:51.476Z,56.75
2018-09-05T03:01:19.780Z,54.00
2018-09-05T03:03:48.078Z,57.25
2018-09-05T03:06:16.311Z,56.50
2018-09-05T03:08:44.588Z,57.00
2018-09-05T03:11:12.862Z,57.50
2018-09-05T03:13:41.214Z,54.50
2018-09-05T03:16:09.445Z,56.50
2018-09-05T03:18:37.843Z,53.75
2018-09-05T03:21:06.480Z,54.50
2018-09-05T03:23:34.754Z,52.50
2018-09-05T03:26:03.018Z,49.00
2018-09-05T03:28:31.322Z,49.50
2018-09-05T03:30:59.572Z,52.25
2018-09-05T03:33:27.836Z,54.50
2018-09-05T03:35:56.118Z,49.75
2018-09-05T03:38:24.405Z,53.75
2018-09-05T03:40:52.710Z,57.00
2018-09-05T03:43:20.966Z,54.25
2018-09-05T03:45:49.247Z,52.75
2018-09-05T03:48:17.504Z,58.25
2018-09-05T03:50:46.910Z,58.25
2018-09-05T03:53:15.335Z,53.75
2018-09-05T03:55:43.691Z,54.50
2018-09-05T03:58:11.945Z,56.50
2018-09-05T04:00:40.227Z,49.00
2018-09-05T04:03:09.399Z,56.50
2018-09-05T04:05:37.735Z,55.25
2018-09-05T04:08:06.000Z,53.00
2018-09-05T04:10:34.284Z,53.25
2018-09-05T04:13:02.552Z,54.00
2018-09-05T04:15:30.832Z,49.50
2018-09-05T04:17:59.084Z,57.50
2018-09-05T04:20:27.423Z,49.00
2018-09-05T04:22:55.709Z,52.50
2018-09-05T04:25:23.984Z,54.75
2018-09-05T04:27:52.252Z,57.00
2018-09-05T04:30:20.550Z,56.25
2018-09-05T04:32:48.839Z,53.25
2018-09-05T04:35:17.087Z,55.75
2018-09-05T04:37:45.420Z,53.25
2018-09-05T04:40:13.727Z,55.75
2018-09-05T04:42:42.043Z,55.00
2018-09-05T04:45:11.214Z,51.75
2018-09-05T04:47:39.463Z,56.50
2018-09-05T04:50:07.743Z,54.75
2018-09-05T04:52:36.039Z,55.75
2018-09-05T04:55:04.322Z,53.75
2018-09-05T04:57:32.591Z,54.00
2018-09-05T05:00:00.832Z,56.00
2018-09-05T05:02:29.089Z,55.25
2018-09-05T05:04:57.419Z,59.50
2018-09-05T05:07:27.259Z,55.50
2018-09-05T05:09:55.532Z,60.25
2018-09-05T05:12:23.849Z,55.50
2018-09-05T05:14:52.155Z,57.00
2018-09-05T05:17:20.447Z,60.25
2018-09-05T05:19:48.774Z,53.25
2018-09-05T05:22:17.080Z,53.25
2018-09-05T05:24:45.325Z,55.75
2018-09-05T05:27:13.663Z,55.75
2018-09-05T05:29:41.916Z,53.00
2018-09-05T05:32:10.219Z,53.75
2018-09-05T05:34:38.511Z,53.00
2018-09-05T05:37:06.804Z,52.75
2018-09-05T05:39:35.081Z,58.25
2018-09-05T05:42:03.368Z,54.75
2018-09-05T05:44:31.675Z,53.75
2018-09-05T05:46:59.974Z,56.00
2018-09-05T05:49:28.236Z,55.50
2018-09-05T05:51:56.545Z,53.75
2018-09-05T05:54:24.857Z,55.50
2018-09-05T05:56:53.151Z,56.00
2018-09-05T05:59:21.388Z,57.50
2018-09-05T06:01:49.709Z,48.00
2018-09-05T06:04:18.009Z,54.25
2018-09-05T06:06:46.287Z,57.00
2018-09-05T06:09:14.578Z,56.50
2018-09-05T06:11:42.867Z,53.50
2018-09-05T06:14:11.163Z,60.25
2018-09-05T06:16:39.478Z,55.00
2018-09-05T06:19:07.818Z,57.50
2018-09-05T06:21:36.112Z,56.00
2018-09-05T06:24:04.442Z,54.25
2018-09-05T06:26:32.696Z,55.50
2018-09-05T06:29:01.010Z,57.25
2018-09-05T06:31:29.287Z,58.50
2018-09-05T06:33:57.585Z,54.75
2018-09-05T06:36:25.985Z,56.75
2018-09-05T06:38:55.196Z,55.75
2018-09-05T06:41:23.494Z,59.25
2018-09-05T06:43:51.770Z,59.25
2018-09-05T06:46:20.079Z,60.25
2018-09-05T06:48:48.355Z,59.25
2018-09-05T06:51:17.594Z,59.75
2018-09-05T06:53:45.829Z,58.50
2018-09-05T06:56:14.150Z,59.50
2018-09-05T06:58:42.444Z,63.00
2018-09-05T07:01:10.746Z,61.75
2018-09-05T07:03:39.110Z,57.75
2018-09-05T07:06:07.482Z,60.00
2018-09-05T07:08:35.798Z,61.50
2018-09-05T07:11:04.072Z,60.25
2018-09-05T07:13:32.362Z,57.25
2018-09-05T07:16:00.627Z,59.00
2018-09-05T07:18:28.935Z,56.25
2018-09-05T07:21:05.682Z,55.00
2018-09-05T07:23:25.504Z,56.25
2018-09-05T07:25:53.775Z,52.75
2018-09-05T07:28:22.084Z,55.75
2018-09-05T07:30:50.432Z,57.50
2018-09-05T07:33:18.653Z,56.25
2018-09-05T07:35:46.965Z,57.00
2018-09-05T07:38:15.274Z,54.00
2018-09-05T07:40:43.588Z,54.00
2018-09-05T07:43:11.886Z,50.50
2018-09-05T07:45:40.184Z,52.50
2018-09-05T07:48:08.490Z,51.50
2018-09-05T07:50:36.805Z,53.00
2018-09-05T07:53:05.135Z,53.75
2018-09-05T07:55:33.406Z,52.25
2018-09-05T07:58:01.729Z,52.75
2018-09-05T08:00:29.974Z,52.75
2018-09-05T08:02:59.413Z,51.25
2018-09-05T08:05:27.675Z,55.25
2018-09-05T08:07:55.976Z,54.75
2018-09-05T08:10:24.272Z,49.50
2018-09-05T08:12:52.547Z,50.00
2018-09-05T08:15:20.877Z,54.25
2018-09-05T08:17:49.334Z,50.00
2018-09-05T08:20:17.651Z,49.25
2018-09-05T08:22:45.943Z,50.75
2018-09-05T08:25:14.240Z,50.00
2018-09-05T08:27:42.554Z,50.50
2018-09-05T08:30:10.951Z,49.75
2018-09-05T08:32:39.223Z,48.25
2018-09-05T08:35:08.134Z,49.00
2018-09-05T08:37:36.451Z,46.75
2018-09-05T08:40:04.638Z,50.00
2018-09-05T08:42:34.103Z,51.00
2018-09-05T08:45:03.052Z,48.75
2018-09-05T08:47:31.963Z,49.00
2018-09-05T08:50:01.451Z,49.50
2018-09-05T08:52:30.181Z,46.50
2018-09-05T08:54:58.639Z,48.25
2018-09-05T08:57:26.973Z,44.00
2018-09-05T08:59:55.244Z,46.50
2018-09-05T09:02:23.593Z,45.25
2018-09-05T09:04:54.024Z,46.75
2018-09-05T09:07:22.280Z,45.00
2018-09-05T09:09:50.598Z,44.50
2018-09-05T09:12:19.278Z,45.50
2018-09-05T09:14:47.633Z,47.75
2018-09-05T09:17:15.888Z,48.75
2018-09-05T09:19:44.211Z,47.00
2018-09-05T09:22:12.489Z,44.50
2018-09-05T09:24:40.792Z,44.25
2018-09-05T09:27:09.140Z,42.50
2018-09-05T09:29:37.692Z,42.75
2018-09-05T09:32:06.051Z,44.50
2018-09-05T09:34:34.475Z,43.50
2018-09-05T09:37:03.718Z,43.50
2018-09-05T09:39:32.145Z,38.50
2018-09-05T09:42:00.487Z,44.25
2018-09-05T09:44:28.761Z,45.50
2018-09-05T09:46:57.169Z,44.00
2018-09-05T09:49:25.450Z,44.75
2018-09-05T09:51:57.901Z,40.50
2018-09-05T09:54:26.195Z,44.75
2018-09-05T09:56:54.472Z,44.00
2018-09-05T09:59:22.787Z,42.50
2018-09-05T10:01:56.329Z,41.75
2018-09-05T10:04:29.851Z,43.50
2018-09-05T10:07:04.321Z,46.50
2018-09-05T10:09:37.620Z,45.00
2018-09-05T10:12:11.761Z,42.25
2018-09-05T10:14:44.233Z,42.00
2018-09-05T10:17:20.168Z,43.25
2018-09-05T10:19:53.668Z,44.25
2018-09-05T10:22:23.329Z,43.75
2018-09-05T10:24:51.939Z,43.25
2018-09-05T10:27:21.149Z,43.75
2018-09-05T10:29:49.532Z,42.00
2018-09-05T10:32:18.337Z,45.75
2018-09-05T10:34:46.650Z,45.75
2018-09-05T10:37:15.128Z,45.75
2018-09-05T10:39:44.414Z,41.75
2018-09-05T10:42:12.973Z,42.00
2018-09-05T10:44:41.308Z,44.50
2018-09-05T10:47:09.624Z,42.00
2018-09-05T10:49:38.949Z,43.50
2018-09-05T10:52:08.375Z,41.50
2018-09-05T10:54:39.096Z,42.75
2018-09-05T10:57:13.747Z,41.00
2018-09-05T10:59:43.176Z,38.25
2018-09-05T11:02:11.468Z,40.50
2018-09-05T11:04:39.829Z,38.25
2018-09-05T11:07:08.397Z,41.25
2018-09-05T11:09:36.844Z,37.50
2018-09-05T11:12:05.194Z,39.50
2018-09-05T11:14:33.522Z,40.50
2018-09-05T11:17:01.868Z,39.25
2018-09-05T11:19:30.184Z,41.75
2018-09-05T11:21:58.443Z,40.25
2018-09-05T11:24:32.140Z,37.00
2018-09-05T11:27:00.434Z,38.75
2018-09-05T11:29:35.302Z,39.50
2018-09-05T11:32:03.599Z,40.75
2018-09-05T11:34:31.892Z,38.00
2018-09-05T11:37:01.283Z,37.75
2018-09-05T11:39:29.481Z,35.75
2018-09-05T11:41:57.756Z,38.25
2018-09-05T11:44:26.076Z,36.50
2018-09-05T11:46:54.358Z,35.75
2018-09-05T11:49:23.377Z,37.00
2018-09-05T11:51:52.519Z,37.00
2018-09-05T11:54:20.816Z,36.50
2018-09-05T11:56:49.099Z,32.50
2018-09-05T11:59:17.414Z,34.00
2018-09-05T12:01:45.712Z,32.25
2018-09-05T12:04:14.008Z,33.00
2018-09-05T12:06:42.344Z,32.50
2018-09-05T12:09:11.738Z,34.25
2018-09-05T12:11:40.152Z,34.00
2018-09-05T12:14:08.999Z,32.00
2018-09-05T12:16:37.814Z,34.50
2018-09-05T12:19:07.537Z,30.50
2018-09-05T12:21:35.835Z,32.25
2018-09-05T12:24:05.031Z,29.75
2018-09-05T12:26:33.413Z,33.25
2018-09-05T12:29:02.120Z,35.50
2018-09-05T12:31:30.404Z,32.00
2018-09-05T12:33:58.699Z,34.25
2018-09-05T12:36:27.004Z,34.25
2018-09-05T12:38:55.312Z,33.25
2018-09-05T12:41:23.634Z,32.00
2018-09-05T12:43:51.959Z,31.25
2018-09-05T12:46:20.242Z,33.50
2018-09-05T12:48:48.687Z,37.00
2018-09-05T12:51:16.948Z,31.75
2018-09-05T12:53:45.301Z,30.75
2018-09-05T12:56:13.600Z,28.00
2018-09-05T12:58:41.921Z,31.00
2018-09-05T13:01:10.172Z,31.50
2018-09-05T13:03:38.491Z,29.00
2018-09-05T13:06:07.315Z,35.00
2018-09-05T13:08:36.589Z,36.75
2018-09-05T13:11:04.856Z,29.75
2018-09-05T13:13:33.205Z,35.75
2018-09-05T13:16:02.854Z,33.25
2018-09-05T13:18:31.224Z,35.25
2018-09-05T13:20:59.516Z,31.00
2018-09-05T13:23:27.840Z,33.00
2018-09-05T13:25:56.128Z,35.25
2018-09-05T13:28:24.398Z,33.00
2018-09-05T13:30:52.700Z,30.25
2018-09-05T13:33:20.968Z,34.25
2018-09-05T13:35:49.300Z,36.50
2018-09-05T13:38:17.592Z,36.50
2018-09-05T13:40:45.905Z,139.75
2018-09-05T13:43:14.193Z,43.75
2018-09-05T13:45:42.498Z,30.00
2018-09-05T13:48:10.782Z,30.75
2018-09-05T13:50:39.104Z,28.00
2018-09-05T13:53:07.405Z,29.00
2018-09-05T13:55:35.725Z,32.00
2018-09-05T13:58:05.119Z,30.00
2018-09-05T14:00:33.407Z,31.75
2018-09-05T14:03:01.715Z,32.00
2018-09-05T14:05:30.013Z,32.00
2018-09-05T14:07:58.309Z,26.25
2018-09-05T14:10:27.211Z,32.00
2018-09-05T14:12:55.802Z,35.75
2018-09-05T14:15:24.651Z,37.75
2018-09-05T14:17:52.963Z,30.50
2018-09-05T14:20:21.278Z,32.25
2018-09-05T14:22:49.595Z,38.25
2018-09-05T14:25:17.892Z,33.00
2018-09-05T14:27:46.205Z,31.00
2018-09-05T14:30:14.493Z,32.00
2018-09-05T14:32:42.831Z,36.50
2018-09-05T14:35:11.147Z,33.50
2018-09-05T14:37:39.479Z,36.50
2018-09-05T14:40:07.841Z,33.75
2018-09-05T14:42:36.179Z,37.25
2018-09-05T14:45:04.535Z,34.75
2018-09-05T14:47:33.481Z,35.50
2018-09-05T14:50:01.792Z,34.25
2018-09-05T14:52:30.119Z,38.00
2018-09-05T14:54:59.373Z,35.75
2018-09-05T14:57:27.661Z,35.00
2018-09-05T14:59:56.080Z,34.25
2018-09-05T15:02:24.332Z,35.75
2018-09-05T15:04:52.654Z,35.50
2018-09-05T15:07:21.155Z,37.50
2018-09-05T15:09:50.446Z,35.50
2018-09-05T15:12:18.747Z,32.25
2018-09-05T15:14:47.007Z,35.25
2018-09-05T15:17:15.329Z,33.75
2018-09-05T15:19:43.632Z,34.50
2018-09-05T15:22:11.972Z,37.75
2018-09-05T15:24:40.274Z,35.00
2018-09-05T15:27:08.568Z,36.75
2018-09-05T15:29:36.885Z,37.00
2018-09-05T15:32:05.245Z,37.00
2018-09-05T15:34:33.470Z,36.50
2018-09-05T15:37:01.828Z,41.00
2018-09-05T15:39:30.202Z,34.75
2018-09-05T15:41:58.454Z,37.00
2018-09-05T15:44:26.778Z,36.75
2018-09-05T15:46:55.079Z,34.50
2018-09-05T15:49:23.391Z,34.25
2018-09-05T15:51:56.484Z,38.00
2018-09-05T15:54:25.899Z,37.75
2018-09-05T15:56:54.192Z,37.00
2018-09-05T15:59:23.178Z,37.75
2018-09-05T16:01:52.347Z,36.75
2018-09-05T16:04:20.620Z,37.75
2018-09-05T16:06:48.926Z,34.50
2018-09-05T16:09:17.204Z,35.00
2018-09-05T16:11:45.490Z,38.00
2018-09-05T16:14:13.824Z,38.25
2018-09-05T16:16:42.658Z,38.50
2018-09-05T16:19:10.956Z,38.25
2018-09-05T16:21:39.304Z,37.25
2018-09-05T16:24:07.608Z,39.25
2018-09-05T16:26:35.899Z,37.50
2018-09-05T16:29:04.184Z,39.25
2018-09-05T16:31:32.489Z,38.25
2018-09-05T16:34:01.831Z,37.75
2018-09-05T16:36:30.116Z,37.75
2018-09-05T16:38:58.430Z,36.75
2018-09-05T16:41:26.705Z,35.00
2018-09-05T16:43:54.980Z,38.25
2018-09-05T16:46:25.132Z,37.75
2018-09-05T16:48:53.417Z,39.00
2018-09-05T16:51:21.714Z,37.00
2018-09-05T16:53:50.026Z,38.25
2018-09-05T16:56:18.306Z,33.75
2018-09-05T16:58:46.596Z,35.75
2018-09-05T17:01:14.926Z,36.00
2018-09-05T17:03:43.216Z,38.00
2018-09-05T17:06:11.497Z,37.50
2018-09-05T17:08:41.027Z,38.00
2018-09-05T17:11:09.330Z,38.00
2018-09-05T17:13:37.625Z,37.25
2018-09-05T17:16:05.902Z,38.75
2018-09-05T17:18:34.180Z,38.75
2018-09-05T17:21:02.471Z,37.25
2018-09-05T17:23:30.851Z,36.25
2018-09-05T17:25:59.160Z,36.00
2018-09-05T17:28:27.758Z,40.50
2018-09-05T17:30:57.121Z,39.00
2018-09-05T17:33:25.457Z,36.50
2018-09-05T17:35:53.825Z,38.75
2018-09-05T17:38:22.141Z,37.25
2018-09-05T17:40:50.510Z,37.50
2018-09-05T17:43:18.847Z,36.75
2018-09-05T17:45:47.192Z,37.00
2018-09-05T17:48:15.511Z,33.50
2018-09-05T17:50:43.853Z,34.50
2018-09-05T17:53:12.791Z,34.75
2018-09-05T17:55:41.079Z,33.25
2018-09-05T17:58:09.459Z,38.25
2018-09-05T18:00:37.814Z,34.50
2018-09-05T18:03:07.464Z,36.00
2018-09-05T18:05:35.856Z,36.75
2018-09-05T18:08:04.155Z,37.25
2018-09-05T18:10:32.459Z,34.75
2018-09-05T18:13:00.748Z,31.25
2018-09-05T18:15:29.049Z,38.00
2018-09-05T18:17:57.368Z,36.50
2018-09-05T18:20:25.699Z,38.25
2018-09-05T18:22:54.027Z,36.50
2018-09-05T18:25:22.348Z,37.00
2018-09-05T18:27:50.659Z,38.75
2018-09-05T18:30:19.820Z,36.25
2018-09-05T18:32:48.158Z,38.00
2018-09-05T18:35:16.477Z,39.00
2018-09-05T18:37:44.801Z,38.75
2018-09-05T18:40:13.107Z,37.25
2018-09-05T18:42:41.404Z,38.50
2018-09-05T18:45:09.713Z,38.25
2018-09-05T18:47:38.012Z,38.75
2018-09-05T18:50:06.370Z,38.25
2018-09-05T18:52:34.669Z,39.50
2018-09-05T18:55:03.389Z,39.00
2018-09-05T18:57:31.629Z,39.00
2018-09-05T19:00:00.291Z,36.25
2018-09-05T19:02:32.339Z,36.75
2018-09-05T19:05:00.720Z,37.75
2018-09-05T19:07:31.951Z,41.00
2018-09-05T19:10:00.456Z,37.00
2018-09-05T19:12:29.269Z,39.50
2018-09-05T19:14:57.567Z,39.00
2018-09-05T19:17:25.884Z,39.00
2018-09-05T19:19:54.175Z,41.25
2018-09-05T19:22:22.984Z,38.75
2018-09-05T19:24:51.248Z,41.75
2018-09-05T19:27:19.899Z,37.75
2018-09-05T19:29:48.175Z,40.00
2018-09-05T19:32:16.689Z,39.00
2018-09-05T19:34:44.997Z,42.50
2018-09-05T19:37:13.309Z,42.25
2018-09-05T19:39:41.876Z,43.00
2018-09-05T19:42:10.170Z,43.50
2018-09-05T19:44:38.508Z,41.75
2018-09-05T19:47:06.851Z,39.00
2018-09-05T19:49:35.185Z,42.00
2018-09-05T19:52:03.501Z,41.50
2018-09-05T19:54:31.794Z,42.75
2018-09-05T19:57:00.100Z,42.00
2018-09-05T19:59:28.385Z,44.25
2018-09-05T20:01:56.683Z,47.25
2018-09-05T20:04:25.252Z,44.00
2018-09-05T20:06:53.552Z,45.25
2018-09-05T20:09:21.851Z,45.50
2018-09-05T20:11:50.208Z,47.75
2018-09-05T20:14:18.518Z,45.00
2018-09-05T20:16:46.806Z,46.50
2018-09-05T20:19:15.109Z,49.00
2018-09-05T20:21:43.408Z,47.00
2018-09-05T20:24:11.705Z,45.25
2018-09-05T20:26:39.998Z,44.25
2018-09-05T20:29:08.312Z,43.50
2018-09-05T20:31:36.596Z,43.50
2018-09-05T20:34:05.938Z,47.25
2018-09-05T20:36:34.233Z,43.50
2018-09-05T20:39:02.523Z,45.25
2018-09-05T20:41:30.800Z,46.50
2018-09-05T20:43:59.133Z,47.50
2018-09-05T20:46:27.431Z,47.50
2018-09-05T20:48:55.755Z,45.75
2018-09-05T20:51:24.057Z,47.25
2018-09-05T20:53:52.316Z,44.75
2018-09-05T20:56:20.622Z,47.75
2018-09-05T20:58:48.975Z,47.50
2018-09-05T21:01:17.211Z,47.50
2018-09-05T21:03:45.503Z,47.75
2018-09-05T21:06:13.852Z,48.25
2018-09-05T21:08:42.095Z,44.50
2018-09-05T21:11:10.351Z,43.50
2018-09-05T21:13:38.624Z,51.00
2018-09-05T21:16:07.045Z,51.25
2018-09-05T21:18:35.380Z,45.25
2018-09-05T21:21:03.691Z,44.00
2018-09-05T21:23:32.658Z,48.50
2018-09-05T21:26:01.080Z,50.75
2018-09-05T21:28:29.336Z,46.25
2018-09-05T21:30:57.667Z,46.25
2018-09-05T21:33:26.242Z,49.00
2018-09-05T21:35:54.628Z,47.00
2018-09-05T21:38:22.973Z,47.75
2018-09-05T21:40:51.275Z,49.75
2018-09-05T21:43:19.553Z,47.25
2018-09-05T21:45:47.831Z,47.75
2018-09-05T21:48:16.169Z,46.75
2018-09-05T21:50:44.408Z,48.00
2018-09-05T21:53:12.699Z,48.00
2018-09-05T21:55:41.184Z,50.50
2018-09-05T21:58:09.486Z,46.50
2018-09-05T22:00:37.777Z,48.75
2018-09-05T22:03:06.087Z,52.00
2018-09-05T22:05:34.396Z,46.75
2018-09-05T22:08:02.675Z,44.25
2018-09-05T22:10:30.974Z,49.00
2018-09-05T22:12:59.344Z,44.00
2018-09-05T22:15:31.955Z,48.50
2018-09-05T22:18:00.258Z,46.00
2018-09-05T22:20:28.544Z,44.25
2018-09-05T22:22:56.815Z,48.25
2018-09-05T22:25:25.131Z,48.75
2018-09-05T22:27:53.422Z,48.50
2018-09-05T22:30:21.717Z,48.75
2018-09-05T22:32:50.008Z,47.75
2018-09-05T22:35:18.287Z,51.75
2018-09-05T22:37:46.571Z,49.50
2018-09-05T22:40:14.862Z,46.00
2018-09-05T22:42:55.363Z,49.75
2018-09-05T22:45:34.910Z,51.00
2018-09-05T22:51:25.755Z,46.75
2018-09-05T22:54:10.435Z,46.25
2018-09-05T22:58:04.259Z,50.00
2018-09-05T23:03:45.924Z,48.50
2018-09-05T23:06:29.595Z,49.25
2018-09-05T23:08:57.870Z,50.75
2018-09-05T23:12:03.758Z,51.50
2018-09-05T23:14:43.453Z,55.00
2018-09-05T23:17:23.168Z,53.25
2018-09-05T23:20:04.427Z,51.75
2018-09-05T23:23:46.745Z,52.00
2018-09-05T23:26:15.037Z,46.75
2018-09-05T23:28:43.320Z,49.75
2018-09-05T23:31:11.589Z,52.25
2018-09-05T23:33:40.884Z,49.00
2018-09-05T23:36:09.160Z,51.75
2018-09-05T23:38:37.470Z,53.00
2018-09-05T23:41:05.735Z,52.00
2018-09-05T23:43:34.069Z,49.00
2018-09-05T23:46:03.255Z,49.75
2018-09-05T23:48:31.525Z,49.50
2018-09-05T23:50:59.822Z,44.25
2018-09-05T23:53:28.073Z,45.75
2018-09-05T23:55:56.415Z,43.25
2018-09-05T23:58:25.052Z,42.25
